Time;durP1;ratioP1;P1;durP2;ratioP2;P2;SDS_P1;SDS_P2;PMS_P1;PMS_P2;Temp;Humidity;BMP_temperature;BMP_pressure;BME280_temperature;BME280_humidity;BME280_pressure;Samples;Min_cycle;Max_cycle;Signal;HPM_P1;HPM_P2
2023/07/12 00:00:00;;;;;;;6.55;3.47;;;23.60;99.90;;;;;;5093096;28;20024;-68
2023/07/12 00:02:26;;;;;;;7.57;3.65;;;23.60;99.90;;;;;;5082060;28;20024;-68
2023/07/12 00:04:52;;;;;;;6.80;3.75;;;23.60;99.90;;;;;;5082127;28;20057;-68
2023/07/12 00:07:18;;;;;;;7.95;3.45;;;23.60;99.90;;;;;;5081818;28;20036;-68
2023/07/12 00:09:45;;;;;;;5.43;3.97;;;23.60;99.90;;;;;;5082383;28;20353;-68
2023/07/12 00:12:10;;;;;;;5.28;3.63;;;23.60;99.90;;;;;;5080905;28;20425;-68
2023/07/12 00:14:36;;;;;;;5.22;3.75;;;23.60;99.90;;;;;;5082437;28;20029;-68
2023/07/12 00:17:02;;;;;;;5.47;4.10;;;23.40;99.90;;;;;;5086222;28;20622;-68
2023/07/12 00:19:27;;;;;;;5.32;3.20;;;23.40;99.90;;;;;;5088663;28;20020;-68
2023/07/12 00:21:53;;;;;;;5.43;3.67;;;23.40;99.90;;;;;;5081895;28;20029;-68
2023/07/12 00:24:19;;;;;;;8.52;3.85;;;23.40;99.90;;;;;;5081407;28;20043;-68
2023/07/12 00:26:44;;;;;;;6.43;3.83;;;23.40;99.90;;;;;;5076792;28;20040;-68
2023/07/12 00:29:10;;;;;;;7.00;3.15;;;23.40;99.90;;;;;;5081688;28;20196;-68
2023/07/12 00:31:36;;;;;;;4.75;3.83;;;23.40;99.90;;;;;;5085216;28;20030;-68
2023/07/12 00:34:02;;;;;;;5.85;3.38;;;23.40;99.90;;;;;;5082076;28;20032;-68
2023/07/12 00:36:31;;;;;;;5.95;3.80;;;23.40;99.90;;;;;;5084146;28;20028;-68
2023/07/12 00:38:58;;;;;;;4.85;3.42;;;23.30;99.90;;;;;;5081420;28;20025;-68
2023/07/12 00:41:48;;;;;;;10.57;3.30;;;23.30;99.90;;;;;;5084713;28;20020;-68
2023/07/12 00:44:20;;;;;;;3.88;2.90;;;23.30;99.90;;;;;;5084875;28;20488;-67
2023/07/12 00:46:49;;;;;;;5.60;3.30;;;23.30;99.90;;;;;;5081750;28;20081;-68
2023/07/12 00:49:15;;;;;;;6.22;3.40;;;23.20;99.90;;;;;;5080841;28;20531;-68
2023/07/12 00:51:52;;;;;;;5.63;3.40;;;23.10;99.90;;;;;;5081620;28;20112;-68
2023/07/12 00:54:21;;;;;;;7.82;3.42;;;23.20;99.90;;;;;;5080297;28;20020;-68
2023/07/12 00:56:47;;;;;;;5.85;3.78;;;23.10;99.90;;;;;;5080354;28;20083;-68
2023/07/12 00:59:22;;;;;;;6.43;3.47;;;23.10;99.90;;;;;;5087976;28;20032;-67
2023/07/12 01:01:52;;;;;;;7.47;3.03;;;23.00;99.90;;;;;;5080232;28;20077;-68
2023/07/12 01:04:25;;;;;;;4.97;2.60;;;23.00;99.90;;;;;;5079498;28;20077;-67
2023/07/12 01:06:51;;;;;;;7.22;3.08;;;22.90;99.90;;;;;;5083813;28;20040;-68
2023/07/12 01:09:17;;;;;;;5.47;3.13;;;22.80;99.90;;;;;;5077657;28;20036;-68
2023/07/12 01:11:45;;;;;;;5.32;2.55;;;22.80;99.90;;;;;;5079671;28;20486;-70
2023/07/12 01:14:14;;;;;;;4.47;2.40;;;22.60;99.90;;;;;;5078518;28;20142;-71
2023/07/12 01:16:42;;;;;;;3.92;3.28;;;22.60;99.90;;;;;;5078931;28;20127;-71
2023/07/12 01:19:09;;;;;;;3.70;2.75;;;22.50;99.90;;;;;;5082833;28;20028;-69
2023/07/12 01:21:40;;;;;;;6.35;2.83;;;22.50;99.90;;;;;;5080167;28;20036;-68
2023/07/12 01:24:06;;;;;;;5.27;2.70;;;22.50;99.90;;;;;;5076583;28;20020;-70
2023/07/12 01:26:42;;;;;;;4.05;2.65;;;22.30;99.90;;;;;;5082981;28;20654;-68
2023/07/12 01:29:09;;;;;;;8.32;3.05;;;22.40;99.90;;;;;;5082429;28;20024;-69
2023/07/12 01:31:35;;;;;;;6.32;3.03;;;22.40;99.90;;;;;;5080718;28;20047;-70
2023/07/12 01:34:02;;;;;;;5.47;2.88;;;22.40;99.90;;;;;;5085174;28;20460;-72
2023/07/12 01:36:29;;;;;;;5.70;3.83;;;22.40;99.90;;;;;;5088468;28;20024;-75
2023/07/12 01:38:57;;;;;;;9.52;4.15;;;22.40;99.90;;;;;;5083160;28;20019;-67
2023/07/12 01:41:23;;;;;;;8.85;3.67;;;22.30;99.90;;;;;;5080374;28;20531;-68
2023/07/12 01:43:50;;;;;;;5.80;2.72;;;22.10;99.90;;;;;;5079936;28;20042;-68
2023/07/12 01:46:16;;;;;;;6.35;2.58;;;22.00;99.90;;;;;;5079479;28;20051;-70
2023/07/12 01:48:41;;;;;;;7.35;2.63;;;21.90;99.90;;;;;;5078430;28;20012;-68
2023/07/12 01:51:07;;;;;;;5.25;2.78;;;21.80;99.90;;;;;;5079695;28;20024;-68
2023/07/12 01:53:35;;;;;;;8.57;2.50;;;21.80;99.90;;;;;;5086951;28;20455;-68
2023/07/12 01:56:02;;;;;;;3.45;2.55;;;21.90;99.90;;;;;;5076711;28;20028;-69
2023/07/12 01:58:28;;;;;;;7.15;3.33;;;21.90;99.90;;;;;;5079248;28;20106;-68
2023/07/12 02:00:53;;;;;;;7.88;2.88;;;21.90;99.90;;;;;;5076859;28;20074;-68
2023/07/12 02:03:20;;;;;;;7.32;3.70;;;22.00;99.90;;;;;;5079239;28;20036;-69
2023/07/12 02:05:46;;;;;;;5.43;3.53;;;22.00;99.90;;;;;;5085968;28;20028;-68
2023/07/12 02:08:12;;;;;;;7.50;3.38;;;22.00;99.90;;;;;;5079675;28;20621;-68
2023/07/12 02:10:38;;;;;;;7.07;3.72;;;22.00;99.90;;;;;;5080882;28;20034;-68
2023/07/12 02:13:04;;;;;;;5.03;3.03;;;22.00;99.90;;;;;;5082106;28;20028;-67
2023/07/12 02:15:30;;;;;;;7.88;4.15;;;21.80;99.90;;;;;;5078637;28;20028;-67
2023/07/12 02:17:56;;;;;;;8.57;3.60;;;21.90;99.90;;;;;;5084003;28;20025;-68
2023/07/12 02:20:22;;;;;;;6.88;3.42;;;21.80;99.90;;;;;;5078036;28;20480;-68
2023/07/12 02:22:49;;;;;;;6.43;3.10;;;21.80;99.90;;;;;;5077196;28;20032;-68
2023/07/12 02:25:15;;;;;;;5.72;2.65;;;21.50;99.90;;;;;;5080101;28;20035;-67
2023/07/12 02:27:41;;;;;;;7.22;3.25;;;21.50;99.90;;;;;;5079742;28;20131;-69
2023/07/12 02:30:10;;;;;;;6.18;3.08;;;21.50;99.90;;;;;;5078957;28;20028;-68
2023/07/12 02:32:36;;;;;;;6.97;2.80;;;21.50;99.90;;;;;;5085113;28;20083;-68
2023/07/12 02:35:02;;;;;;;5.38;3.03;;;21.50;99.90;;;;;;5082091;28;20406;-67
2023/07/12 02:37:28;;;;;;;7.18;3.40;;;21.50;99.90;;;;;;5080449;28;20028;-68
2023/07/12 02:39:55;;;;;;;4.53;2.42;;;21.60;99.90;;;;;;5083111;28;20492;-67
2023/07/12 02:42:21;;;;;;;6.18;2.85;;;21.60;99.90;;;;;;5081353;28;20025;-69
2023/07/12 02:44:46;;;;;;;4.72;2.70;;;21.60;99.90;;;;;;5087735;28;20024;-67
2023/07/12 02:47:12;;;;;;;5.35;2.90;;;21.50;99.90;;;;;;5080350;28;20032;-68
2023/07/12 02:49:38;;;;;;;5.45;2.78;;;21.30;99.90;;;;;;5084535;28;20021;-68
2023/07/12 02:52:06;;;;;;;3.30;2.20;;;21.00;99.90;;;;;;5090211;28;20028;-68
2023/07/12 02:54:32;;;;;;;6.75;3.00;;;21.00;99.90;;;;;;5087515;28;20095;-67
2023/07/12 02:56:58;;;;;;;5.13;3.08;;;21.10;99.90;;;;;;5085404;28;20037;-68
2023/07/12 02:59:25;;;;;;;5.88;2.38;;;21.20;99.90;;;;;;5083129;28;20024;-67
2023/07/12 03:01:50;;;;;;;6.20;3.05;;;21.30;99.90;;;;;;5085230;28;20032;-68
2023/07/12 03:04:17;;;;;;;6.75;2.80;;;21.30;99.90;;;;;;5086153;28;20017;-68
2023/07/12 03:06:43;;;;;;;7.10;2.60;;;21.20;99.90;;;;;;5091826;28;20028;-68
2023/07/12 03:09:08;;;;;;;5.60;2.47;;;21.10;99.90;;;;;;5086974;28;20493;-68
2023/07/12 03:11:34;;;;;;;6.70;3.00;;;21.20;99.90;;;;;;5081962;28;20115;-68
2023/07/12 03:14:00;;;;;;;6.68;2.70;;;21.30;99.90;;;;;;5082083;28;20443;-67
2023/07/12 03:16:26;;;;;;;5.28;2.65;;;21.30;99.90;;;;;;5083412;28;20477;-68
2023/07/12 03:18:52;;;;;;;4.25;2.80;;;21.30;99.90;;;;;;5087123;28;20476;-68
2023/07/12 03:21:18;;;;;;;3.22;2.92;;;21.40;99.90;;;;;;5084077;28;20051;-67
2023/07/12 03:23:45;;;;;;;4.45;2.72;;;21.40;99.90;;;;;;5079360;28;20044;-67
2023/07/12 03:26:11;;;;;;;6.70;3.17;;;21.40;99.90;;;;;;5083357;28;20028;-67
2023/07/12 03:28:37;;;;;;;7.93;2.60;;;21.40;99.90;;;;;;5083176;28;20024;-68
2023/07/12 03:31:06;;;;;;;4.97;2.67;;;21.40;99.90;;;;;;5088088;28;20396;-67
2023/07/12 03:33:33;;;;;;;3.10;2.65;;;21.40;99.90;;;;;;5087528;28;20032;-68
2023/07/12 03:35:59;;;;;;;3.15;2.50;;;21.30;99.90;;;;;;5089509;28;20031;-69
2023/07/12 03:38:26;;;;;;;4.38;2.60;;;21.30;99.90;;;;;;5087427;28;20016;-67
2023/07/12 03:40:57;;;;;;;4.53;2.60;;;21.20;99.90;;;;;;5081566;28;20020;-68
2023/07/12 03:43:23;;;;;;;3.67;2.55;;;21.20;99.90;;;;;;5082685;28;20024;-67
2023/07/12 03:45:49;;;;;;;3.80;2.53;;;21.20;99.90;;;;;;5089825;28;20032;-68
2023/07/12 03:48:14;;;;;;;6.05;2.88;;;21.10;99.90;;;;;;5088472;28;20034;-68
2023/07/12 03:50:41;;;;;;;8.13;2.97;;;21.20;99.90;;;;;;5083810;28;20025;-68
2023/07/12 03:53:08;;;;;;;3.38;2.80;;;21.10;99.90;;;;;;5081182;28;20031;-68
2023/07/12 03:55:39;;;;;;;3.53;2.63;;;21.10;99.90;;;;;;5082975;28;20607;-68
2023/07/12 03:58:05;;;;;;;5.45;3.28;;;21.10;99.90;;;;;;5079724;28;20365;-68
2023/07/12 04:00:31;;;;;;;5.43;2.58;;;21.00;99.90;;;;;;5082281;28;20035;-70
2023/07/12 04:02:56;;;;;;;6.47;2.45;;;20.90;99.90;;;;;;5088950;28;20012;-70
2023/07/12 04:05:22;;;;;;;3.70;1.85;;;20.80;99.90;;;;;;5082167;28;20520;-68
2023/07/12 04:07:48;;;;;;;3.83;2.20;;;20.80;99.90;;;;;;5082481;28;20020;-69
2023/07/12 04:10:14;;;;;;;5.53;2.70;;;20.90;99.90;;;;;;5079761;28;20032;-68
2023/07/12 04:12:40;;;;;;;7.60;2.80;;;20.80;99.90;;;;;;5089364;28;20063;-68
2023/07/12 04:15:06;;;;;;;6.15;2.65;;;20.60;99.90;;;;;;5086393;28;20020;-69
2023/07/12 04:17:32;;;;;;;3.75;2.40;;;20.70;99.90;;;;;;5089818;28;20044;-68
2023/07/12 04:19:58;;;;;;;9.50;3.22;;;20.80;99.90;;;;;;5085388;28;20055;-69
2023/07/12 04:22:24;;;;;;;3.95;2.45;;;20.90;99.90;;;;;;5083325;28;20106;-68
2023/07/12 04:24:51;;;;;;;5.18;2.50;;;20.80;99.90;;;;;;5091987;28;20459;-70
2023/07/12 04:27:18;;;;;;;6.03;2.55;;;20.80;99.90;;;;;;5085986;28;20097;-69
2023/07/12 04:29:44;;;;;;;5.80;2.72;;;20.80;99.90;;;;;;5079888;28;20024;-68
2023/07/12 04:32:10;;;;;;;5.72;2.65;;;20.60;99.90;;;;;;5084863;28;20020;-68
2023/07/12 04:34:36;;;;;;;4.50;2.72;;;20.60;99.90;;;;;;5090828;28;20487;-68
2023/07/12 04:37:03;;;;;;;6.22;3.00;;;20.70;99.90;;;;;;5081922;28;20024;-70
2023/07/12 04:39:29;;;;;;;9.27;2.90;;;20.60;99.90;;;;;;5079065;28;20069;-70
2023/07/12 04:41:55;;;;;;;9.40;3.20;;;20.70;99.90;;;;;;5081922;28;20028;-71
2023/07/12 04:44:21;;;;;;;7.20;2.60;;;20.70;99.90;;;;;;5084209;28;20032;-69
2023/07/12 04:46:47;;;;;;;4.85;2.67;;;20.70;99.90;;;;;;5079845;28;20498;-69
2023/07/12 04:49:12;;;;;;;5.82;2.65;;;20.70;99.90;;;;;;5082269;28;20150;-68
2023/07/12 04:51:38;;;;;;;8.27;3.33;;;20.70;99.90;;;;;;5084466;28;20039;-68
2023/07/12 04:54:03;;;;;;;6.32;2.75;;;20.70;99.90;;;;;;5082402;28;20436;-68
2023/07/12 04:56:29;;;;;;;6.15;2.70;;;20.80;99.90;;;;;;5085561;28;20032;-68
2023/07/12 04:58:55;;;;;;;9.18;3.72;;;20.70;99.90;;;;;;5089117;28;20032;-69
2023/07/12 05:01:21;;;;;;;11.00;3.00;;;20.80;99.90;;;;;;5086073;28;20112;-69
2023/07/12 05:03:48;;;;;;;10.75;3.35;;;20.70;99.90;;;;;;5088536;28;20032;-69
2023/07/12 05:06:14;;;;;;;7.40;2.95;;;20.80;99.90;;;;;;5080458;28;20055;-69
2023/07/12 05:08:40;;;;;;;7.25;2.97;;;20.70;99.90;;;;;;5084163;28;20154;-71
2023/07/12 05:11:06;;;;;;;5.65;2.75;;;20.60;99.90;;;;;;5085814;28;20675;-72
2023/07/12 05:13:33;;;;;;;9.82;3.70;;;20.70;99.90;;;;;;5077429;28;20021;-69
2023/07/12 05:15:59;;;;;;;8.23;3.80;;;20.70;99.90;;;;;;5081945;28;20024;-68
2023/07/12 05:18:25;;;;;;;5.38;3.40;;;20.70;99.90;;;;;;5090257;28;20085;-68
2023/07/12 05:20:52;;;;;;;8.15;3.45;;;20.70;99.90;;;;;;5085640;28;20473;-69
2023/07/12 05:23:18;;;;;;;5.90;3.75;;;20.60;99.90;;;;;;5087011;28;20030;-68
2023/07/12 05:25:54;;;;;;;5.50;3.05;;;20.70;99.90;;;;;;5080140;28;20250;-68
2023/07/12 05:28:21;;;;;;;6.25;4.55;;;20.70;99.90;;;;;;5088693;28;20035;-69
2023/07/12 05:30:48;;;;;;;7.47;3.40;;;20.80;99.90;;;;;;5078906;28;20024;-68
2023/07/12 05:33:15;;;;;;;11.95;3.78;;;20.70;99.90;;;;;;5079868;28;20167;-69
2023/07/12 05:35:41;;;;;;;7.85;4.03;;;20.70;99.90;;;;;;5080578;28;20078;-69
2023/07/12 05:38:07;;;;;;;8.45;3.95;;;20.70;99.90;;;;;;5084790;28;20451;-69
2023/07/12 05:40:34;;;;;;;8.68;3.53;;;20.70;99.90;;;;;;5086437;28;20492;-69
2023/07/12 05:43:00;;;;;;;7.00;3.72;;;20.70;99.90;;;;;;5082557;28;20038;-68
2023/07/12 05:45:26;;;;;;;8.85;4.05;;;20.60;99.90;;;;;;5076524;28;20070;-70
2023/07/12 05:47:51;;;;;;;6.65;3.35;;;20.70;99.90;;;;;;5089279;28;20396;-69
2023/07/12 05:50:19;;;;;;;6.75;3.38;;;20.50;99.90;;;;;;5086631;28;20035;-69
2023/07/12 05:52:46;;;;;;;10.60;4.25;;;20.50;99.90;;;;;;5080380;28;20047;-68
2023/07/12 05:55:14;;;;;;;18.38;4.45;;;20.50;99.90;;;;;;5083037;28;20012;-69
2023/07/12 05:57:39;;;;;;;12.32;4.25;;;20.40;99.90;;;;;;5091429;28;20070;-68
2023/07/12 06:00:10;;;;;;;12.88;3.95;;;20.50;99.90;;;;;;5077823;28;20066;-68
2023/07/12 06:02:37;;;;;;;10.40;3.97;;;20.40;99.90;;;;;;5080921;28;20420;-68
2023/07/12 06:05:04;;;;;;;7.25;3.50;;;20.40;99.90;;;;;;5085612;28;20024;-68
2023/07/12 06:07:30;;;;;;;9.85;3.83;;;20.20;99.90;;;;;;5086090;28;20040;-68
2023/07/12 06:09:56;;;;;;;9.35;3.67;;;20.20;99.90;;;;;;5084557;28;20028;-68
2023/07/12 06:12:21;;;;;;;11.65;3.63;;;20.10;99.90;;;;;;5088035;28;20410;-68
2023/07/12 06:14:47;;;;;;;9.25;3.90;;;20.20;99.90;;;;;;5086295;28;20024;-68
2023/07/12 06:17:13;;;;;;;10.40;3.38;;;20.30;99.90;;;;;;5079727;28;20027;-68
2023/07/12 06:19:39;;;;;;;19.20;4.78;;;20.20;99.90;;;;;;5080826;28;20077;-68
2023/07/12 06:22:05;;;;;;;8.35;3.63;;;20.30;99.90;;;;;;5079033;28;20020;-68
2023/07/12 06:24:31;;;;;;;11.07;3.65;;;20.40;99.90;;;;;;5076233;28;20089;-68
2023/07/12 06:26:56;;;;;;;8.82;4.10;;;20.30;99.90;;;;;;5075464;28;20480;-68
2023/07/12 06:29:24;;;;;;;11.13;4.15;;;20.20;99.90;;;;;;5082013;28;20029;-68
2023/07/12 06:31:50;;;;;;;12.23;4.60;;;20.20;99.90;;;;;;5079363;28;20077;-69
2023/07/12 06:34:16;;;;;;;13.18;4.57;;;20.30;99.90;;;;;;5087421;28;20030;-69
2023/07/12 06:36:42;;;;;;;7.63;4.55;;;20.20;99.90;;;;;;5083560;28;20375;-68
2023/07/12 06:39:08;;;;;;;13.18;4.53;;;20.20;99.90;;;;;;5084923;28;20036;-69
2023/07/12 06:41:34;;;;;;;11.50;4.55;;;20.20;99.90;;;;;;5075916;28;20020;-68
2023/07/12 06:44:00;;;;;;;12.98;4.75;;;20.10;99.90;;;;;;5076311;28;20369;-68
2023/07/12 06:46:25;;;;;;;6.95;4.30;;;20.00;99.90;;;;;;5080649;28;20037;-69
2023/07/12 06:48:51;;;;;;;10.00;4.65;;;20.00;99.90;;;;;;5084591;28;20414;-69
2023/07/12 06:51:17;;;;;;;8.82;3.83;;;20.10;99.90;;;;;;5082349;28;20055;-69
2023/07/12 06:53:42;;;;;;;11.52;4.57;;;20.20;99.90;;;;;;5086510;28;20021;-68
2023/07/12 06:56:08;;;;;;;9.07;4.15;;;20.20;99.90;;;;;;5077920;28;20032;-69
2023/07/12 06:58:34;;;;;;;10.73;4.05;;;20.10;99.90;;;;;;5078752;28;20030;-69
2023/07/12 07:01:00;;;;;;;10.43;3.70;;;20.20;99.90;;;;;;5080335;28;20033;-69
2023/07/12 07:03:26;;;;;;;7.03;3.35;;;20.10;99.90;;;;;;5084174;28;20025;-69
2023/07/12 07:05:51;;;;;;;13.57;4.68;;;20.20;99.90;;;;;;5080460;28;20032;-69
2023/07/12 07:08:19;;;;;;;9.02;3.80;;;20.40;99.90;;;;;;5080539;28;20028;-69
2023/07/12 07:10:49;;;;;;;9.50;4.13;;;20.40;99.90;;;;;;5080950;28;20028;-69
2023/07/12 07:13:15;;;;;;;7.60;3.63;;;20.40;99.90;;;;;;5078215;28;20021;-69
2023/07/12 07:15:43;;;;;;;10.60;4.18;;;20.50;99.90;;;;;;5080984;28;20453;-69
2023/07/12 07:18:10;;;;;;;10.10;3.47;;;20.60;99.90;;;;;;5077552;28;20025;-69
2023/07/12 07:20:35;;;;;;;7.72;3.10;;;20.60;99.90;;;;;;5078667;28;20030;-69
2023/07/12 07:23:01;;;;;;;8.63;3.83;;;20.70;99.90;;;;;;5078006;28;20107;-70
2023/07/12 07:25:28;;;;;;;9.48;3.33;;;20.80;99.90;;;;;;5082009;28;20039;-69
2023/07/12 07:27:54;;;;;;;9.70;3.45;;;20.90;99.90;;;;;;5078770;28;20090;-69
2023/07/12 07:30:21;;;;;;;5.50;3.50;;;21.10;99.90;;;;;;5078470;28;20072;-69
2023/07/12 07:32:46;;;;;;;12.80;3.47;;;21.00;99.90;;;;;;5076341;28;20028;-70
2023/07/12 07:35:13;;;;;;;11.88;3.83;;;21.10;99.90;;;;;;5084425;28;20022;-69
2023/07/12 07:37:39;;;;;;;11.38;3.25;;;21.20;99.90;;;;;;5081487;28;20031;-69
2023/07/12 07:40:07;;;;;;;6.68;2.80;;;21.20;99.90;;;;;;5086376;28;20052;-69
2023/07/12 07:42:32;;;;;;;11.45;3.15;;;21.30;99.90;;;;;;5082570;28;20028;-70
2023/07/12 07:44:58;;;;;;;5.82;3.10;;;21.30;99.90;;;;;;5090048;28;20077;-70
2023/07/12 07:47:24;;;;;;;10.40;3.20;;;21.50;99.90;;;;;;5081978;28;20035;-71
2023/07/12 07:49:49;;;;;;;7.93;3.15;;;21.50;99.90;;;;;;5085828;28;20035;-71
2023/07/12 07:52:15;;;;;;;6.90;3.10;;;21.40;99.90;;;;;;5084873;28;20102;-70
2023/07/12 07:54:41;;;;;;;8.10;3.22;;;21.50;99.90;;;;;;5078359;28;20015;-69
2023/07/12 07:57:07;;;;;;;9.60;2.78;;;21.40;99.90;;;;;;5077623;28;20089;-70
2023/07/12 07:59:34;;;;;;;8.98;3.28;;;21.30;99.90;;;;;;5082631;28;20484;-69
2023/07/12 08:02:01;;;;;;;8.38;2.83;;;21.30;99.90;;;;;;5081618;28;20457;-70
2023/07/12 08:04:27;;;;;;;9.57;3.60;;;21.10;99.90;;;;;;5076669;28;20020;-69
2023/07/12 08:06:52;;;;;;;8.18;3.33;;;21.20;99.90;;;;;;5081003;28;20097;-69
2023/07/12 08:09:18;;;;;;;7.22;3.35;;;21.20;99.90;;;;;;5085118;28;20020;-70
2023/07/12 08:11:44;;;;;;;8.07;3.28;;;21.40;99.90;;;;;;5079318;28;20032;-70
2023/07/12 08:14:09;;;;;;;7.45;3.13;;;21.50;99.90;;;;;;5080071;28;20106;-69
2023/07/12 08:16:37;;;;;;;8.40;3.10;;;21.60;99.90;;;;;;5083179;28;20460;-70
2023/07/12 08:19:04;;;;;;;10.05;2.97;;;21.60;99.90;;;;;;5090569;28;20020;-70
2023/07/12 08:21:30;;;;;;;9.57;2.80;;;21.80;99.90;;;;;;5082666;28;20031;-69
2023/07/12 08:23:56;;;;;;;9.45;2.85;;;21.90;99.90;;;;;;5078802;28;20053;-69
2023/07/12 08:26:22;;;;;;;7.45;2.92;;;21.90;99.90;;;;;;5080610;28;20118;-69
2023/07/12 08:28:47;;;;;;;8.23;3.35;;;21.80;99.90;;;;;;5083511;28;20107;-69
2023/07/12 08:31:14;;;;;;;6.47;2.92;;;21.80;99.90;;;;;;5078311;28;20428;-70
2023/07/12 08:33:41;;;;;;;10.48;3.17;;;21.90;99.90;;;;;;5085390;28;20032;-69
2023/07/12 08:36:07;;;;;;;10.48;3.40;;;22.00;99.90;;;;;;5079368;28;20016;-69
2023/07/12 08:38:39;;;;;;;9.98;3.65;;;21.90;99.90;;;;;;5077545;28;20032;-70
2023/07/12 08:41:13;;;;;;;12.80;3.00;;;22.00;99.90;;;;;;5081596;28;20036;-69
2023/07/12 08:43:39;;;;;;;8.20;3.08;;;21.90;99.90;;;;;;5081353;28;20274;-70
2023/07/12 08:46:23;;;;;;;7.05;3.20;;;21.90;99.90;;;;;;5080572;28;20438;-69
2023/07/12 08:48:59;;;;;;;10.90;3.33;;;21.90;99.90;;;;;;5080579;28;20066;-70
2023/07/12 08:51:32;;;;;;;16.40;3.92;;;22.10;99.90;;;;;;5077272;28;20032;-70
2023/07/12 08:53:58;;;;;;;7.20;3.53;;;22.00;99.90;;;;;;5078620;28;20413;-70
2023/07/12 08:56:25;;;;;;;7.95;2.88;;;22.20;99.90;;;;;;5084203;28;20024;-69
2023/07/12 08:58:53;;;;;;;10.25;3.80;;;22.30;99.90;;;;;;5076665;28;20071;-69
2023/07/12 09:01:36;;;;;;;6.80;3.40;;;22.20;99.90;;;;;;5080912;28;20020;-69
2023/07/12 09:04:20;;;;;;;7.10;3.53;;;22.20;99.90;;;;;;5075931;28;20047;-69
2023/07/12 09:06:46;;;;;;;8.02;3.08;;;22.20;99.90;;;;;;5082202;28;20089;-69
2023/07/12 09:09:13;;;;;;;9.55;3.10;;;22.10;99.90;;;;;;5089176;28;20384;-70
2023/07/12 09:11:39;;;;;;;8.90;2.95;;;22.00;99.90;;;;;;5082200;28;20056;-70
2023/07/12 09:14:05;;;;;;;8.35;3.13;;;22.20;99.90;;;;;;5082972;28;20016;-70
2023/07/12 09:16:34;;;;;;;6.28;2.28;;;22.50;99.90;;;;;;5074032;28;20036;-70
2023/07/12 09:19:15;;;;;;;9.10;3.55;;;22.50;99.90;;;;;;5079826;28;20032;-70
2023/07/12 09:21:47;;;;;;;7.18;3.22;;;22.30;99.90;;;;;;5083402;28;20032;-70
2023/07/12 09:24:18;;;;;;;10.75;2.92;;;22.20;99.90;;;;;;5078218;28;20020;-70
2023/07/12 09:26:44;;;;;;;9.18;2.88;;;22.30;99.90;;;;;;5080893;28;20481;-70
2023/07/12 09:29:20;;;;;;;10.07;2.67;;;22.30;99.90;;;;;;5079997;28;20046;-72
2023/07/12 09:31:46;;;;;;;6.47;2.80;;;22.30;99.90;;;;;;5084930;28;20050;-70
2023/07/12 09:34:19;;;;;;;12.68;3.40;;;22.70;99.90;;;;;;5080241;28;20020;-70
2023/07/12 09:36:45;;;;;;;7.35;2.80;;;23.00;99.90;;;;;;5080155;28;20035;-70
2023/07/12 09:39:11;;;;;;;7.20;2.58;;;23.30;99.90;;;;;;5079690;28;20013;-70
2023/07/12 09:41:50;;;;;;;5.85;1.98;;;23.50;99.90;;;;;;5051929;28;20085;-70
2023/07/12 09:44:17;;;;;;;8.02;2.80;;;23.70;99.90;;;;;;5096556;28;20294;-71
2023/07/12 09:46:55;;;;;;;8.82;2.95;;;23.70;99.90;;;;;;5091305;28;20078;-70
2023/07/12 09:49:24;;;;;;;5.72;2.42;;;23.80;99.90;;;;;;5095956;28;20028;-70
2023/07/12 09:51:57;;;;;;;11.02;2.72;;;24.10;99.90;;;;;;5091648;28;20028;-70
2023/07/12 09:54:53;;;;;;;5.55;2.28;;;24.10;99.90;;;;;;5094529;28;20020;-70
2023/07/12 09:57:50;;;;;;;7.63;2.58;;;24.30;99.90;;;;;;5088315;28;20027;-70
2023/07/12 10:00:29;;;;;;;6.70;3.15;;;24.10;99.90;;;;;;5083636;28;20435;-70
2023/07/12 10:03:21;;;;;;;5.88;2.65;;;24.10;99.90;;;;;;5089891;28;20022;-70
2023/07/12 10:06:00;;;;;;;7.70;2.35;;;24.40;99.90;;;;;;5099348;28;20028;-70
2023/07/12 10:08:57;;;;;;;6.30;2.20;;;24.60;99.90;;;;;;5083396;28;20460;-70
2023/07/12 10:11:39;;;;;;;6.40;2.45;;;24.50;99.90;;;;;;5095143;28;20039;-70
2023/07/12 10:14:10;;;;;;;13.10;3.00;;;24.30;99.90;;;;;;5094573;28;20020;-69
2023/07/12 10:16:42;;;;;;;6.88;2.65;;;24.30;99.90;;;;;;5095979;28;20059;-70
2023/07/12 10:19:24;;;;;;;;;;;24.40;99.90;;;;;;5091843;28;20028;-71
2023/07/12 10:21:53;;;;;;;7.50;2.55;;;24.60;99.90;;;;;;5092860;28;19911;-69
2023/07/12 10:24:21;;;;;;;5.50;2.40;;;24.80;99.90;;;;;;5094918;28;20062;-70
2023/07/12 10:26:48;;;;;;;6.30;2.50;;;25.00;99.90;;;;;;5088967;28;20111;-70
2023/07/12 10:29:39;;;;;;;3.83;2.30;;;24.90;99.90;;;;;;5088125;28;20043;-71
2023/07/12 10:32:05;;;;;;;8.18;2.47;;;25.20;99.90;;;;;;5096961;28;20024;-71
2023/07/12 10:34:45;;;;;;;5.20;2.25;;;25.30;99.90;;;;;;5085018;28;20011;-71
2023/07/12 10:37:37;;;;;;;5.75;2.30;;;25.40;99.90;;;;;;5094908;28;20123;-70
2023/07/12 10:40:05;;;;;;;7.45;2.50;;;25.40;99.90;;;;;;5089063;28;20038;-70
2023/07/12 10:42:42;;;;;;;4.40;1.95;;;25.40;99.90;;;;;;5085580;28;20074;-71
2023/07/12 10:45:18;;;;;;;5.72;2.40;;;25.70;99.90;;;;;;5098155;28;20016;-71
2023/07/12 10:47:45;;;;;;;5.82;2.17;;;25.70;99.90;;;;;;5095258;28;20035;-70
2023/07/12 10:50:35;;;;;;;9.93;2.33;;;25.90;99.90;;;;;;5084040;28;20008;-71
2023/07/12 10:53:22;;;;;;;4.68;2.50;;;25.90;99.90;;;;;;5099500;28;20519;-70
2023/07/12 10:56:15;;;;;;;8.93;2.55;;;26.10;99.90;;;;;;5096341;28;20488;-71
2023/07/12 10:58:46;;;;;;;6.82;2.15;;;26.30;99.90;;;;;;5087584;28;20032;-70
2023/07/12 11:01:43;;;;;;;5.23;2.10;;;26.20;99.90;;;;;;5094930;28;20494;-71
2023/07/12 11:04:11;;;;;;;8.55;2.00;;;26.00;99.90;;;;;;5089783;28;20076;-72
2023/07/12 11:07:00;;;;;;;5.43;2.67;;;26.30;99.90;;;;;;5097497;28;20111;-72
2023/07/12 11:09:45;;;;;;;3.08;1.52;;;26.20;99.90;;;;;;5085002;28;20029;-72
2023/07/12 11:12:29;;;;;;;4.20;1.98;;;26.00;99.90;;;;;;5097014;28;20042;-73
2023/07/12 11:15:06;;;;;;;8.73;1.85;;;25.90;99.90;;;;;;5101635;28;20015;-73
2023/07/12 11:18:00;;;;;;;7.63;2.60;;;25.60;99.90;;;;;;5103376;28;20030;-71
2023/07/12 11:20:34;;;;;;;6.32;2.17;;;25.40;99.90;;;;;;5099969;28;20085;-72
2023/07/12 11:23:05;;;;;;;7.93;2.22;;;25.50;99.90;;;;;;5092150;28;20451;-71
2023/07/12 11:25:57;;;;;;;5.95;2.13;;;25.40;99.90;;;;;;5098818;28;20039;-72
2023/07/12 11:28:28;;;;;;;5.95;1.88;;;25.40;99.90;;;;;;5103266;28;20053;-72
2023/07/12 11:31:24;;;;;;;7.53;1.95;;;25.40;99.90;;;;;;5095058;28;20124;-72
2023/07/12 11:34:05;;;;;;;5.22;2.00;;;25.40;99.90;;;;;;5099806;28;20102;-72
2023/07/12 11:36:35;;;;;;;6.82;2.15;;;25.40;99.90;;;;;;5100550;28;20563;-71
2023/07/12 11:39:03;;;;;;;6.78;2.10;;;25.20;99.90;;;;;;5099790;28;20391;-72
2023/07/12 11:41:29;;;;;;;7.72;2.35;;;25.10;99.90;;;;;;5100563;28;20085;-71
2023/07/12 11:44:15;;;;;;;9.55;2.28;;;25.10;99.90;;;;;;5093954;28;20024;-72
2023/07/12 11:46:42;;;;;;;4.93;1.90;;;25.10;99.90;;;;;;5096729;28;20050;-72
2023/07/12 11:49:19;;;;;;;10.18;2.28;;;25.20;99.90;;;;;;5101107;28;20504;-72
2023/07/12 11:51:47;;;;;;;8.25;2.20;;;25.20;99.90;;;;;;5101636;28;20027;-72
2023/07/12 11:54:37;;;;;;;6.82;2.15;;;25.50;99.90;;;;;;5097378;28;20039;-72
2023/07/12 11:57:05;;;;;;;5.10;2.22;;;25.50;99.90;;;;;;5101828;28;20031;-71
2023/07/12 11:59:36;;;;;;;6.85;1.75;;;25.60;99.90;;;;;;5094725;28;20048;-72
2023/07/12 12:02:05;;;;;;;6.15;2.22;;;25.70;99.90;;;;;;5099180;28;20042;-71
2023/07/12 12:04:32;;;;;;;5.07;1.92;;;25.60;99.90;;;;;;5101032;28;20020;-71
2023/07/12 12:07:04;;;;;;;5.78;1.90;;;25.60;99.90;;;;;;5101270;28;20039;-73
2023/07/12 12:09:34;;;;;;;5.68;2.28;;;25.40;99.90;;;;;;5097815;28;20026;-72
2023/07/12 12:12:00;;;;;;;5.88;2.33;;;25.30;99.90;;;;;;5090301;28;20015;-72
2023/07/12 12:14:30;;;;;;;5.90;2.25;;;25.30;99.90;;;;;;5099802;28;20026;-72
2023/07/12 12:17:02;;;;;;;4.70;2.28;;;25.20;99.90;;;;;;5091392;28;20030;-72
2023/07/12 12:19:30;;;;;;;3.78;1.83;;;25.30;99.90;;;;;;5095599;28;20034;-72
2023/07/12 12:22:11;;;;;;;10.25;2.22;;;25.60;99.90;;;;;;5098765;28;20019;-72
2023/07/12 12:24:44;;;;;;;7.03;2.17;;;25.90;99.90;;;;;;5099264;28;20106;-72
2023/07/12 12:27:18;;;;;;;7.72;2.10;;;26.10;99.90;;;;;;5101287;28;20060;-73
2023/07/12 12:29:43;;;;;;;6.95;2.30;;;26.40;99.90;;;;;;5103798;28;20028;-75
2023/07/12 12:32:15;;;;;;;4.78;1.95;;;26.60;99.90;;;;;;5099314;28;20024;-72
2023/07/12 12:34:47;;;;;;;4.38;1.98;;;26.80;99.90;;;;;;5102222;28;20031;-73
2023/07/12 12:37:19;;;;;;;6.03;2.13;;;26.80;99.90;;;;;;5089079;28;20032;-72
2023/07/12 12:40:04;;;;;;;5.03;1.65;;;26.80;99.90;;;;;;5095475;28;20043;-72
2023/07/12 12:42:31;;;;;;;4.55;2.40;;;27.00;99.90;;;;;;5098801;28;20108;-73
2023/07/12 12:44:57;;;;;;;7.05;2.10;;;26.70;99.90;;;;;;5098933;28;20466;-73
2023/07/12 12:47:30;;;;;;;7.03;1.63;;;26.50;99.90;;;;;;5090662;28;20028;-72
2023/07/12 12:49:57;;;;;;;4.90;1.50;;;26.40;99.90;;;;;;5097130;28;20114;-72
2023/07/12 12:52:24;;;;;;;3.28;1.42;;;26.30;99.90;;;;;;5099493;28;20024;-72
2023/07/12 12:54:50;;;;;;;7.13;1.85;;;26.30;99.90;;;;;;5100701;28;20054;-73